createdAt,value
2019-05-30T00:00:56.053Z,21.80
2019-05-30T00:03:28.498Z,21.79
2019-05-30T00:06:00.914Z,21.83
2019-05-30T00:08:33.343Z,21.77
2019-05-30T00:11:06.072Z,21.76
2019-05-30T00:13:38.528Z,21.73
2019-05-30T00:16:10.983Z,21.71
2019-05-30T00:18:43.352Z,21.69
2019-05-30T00:21:15.508Z,21.66
2019-05-30T00:23:47.887Z,21.65
2019-05-30T00:26:20.297Z,21.63
2019-05-30T00:28:52.671Z,21.58
2019-05-30T00:31:24.892Z,21.55
2019-05-30T00:33:57.510Z,21.54
2019-05-30T00:36:30.150Z,21.51
2019-05-30T00:39:03.905Z,21.45
2019-05-30T00:44:08.245Z,21.45
2019-05-30T00:46:40.788Z,21.42
2019-05-30T00:49:12.999Z,21.39
2019-05-30T00:51:45.320Z,21.35
2019-05-30T00:54:17.642Z,21.32
2019-05-30T00:56:49.994Z,21.29
2019-05-30T00:59:22.312Z,21.30
2019-05-30T01:01:54.688Z,21.21
2019-05-30T01:04:27.102Z,21.26
2019-05-30T01:06:59.403Z,21.23
2019-05-30T01:09:32.313Z,21.19
2019-05-30T01:12:05.286Z,21.15
2019-05-30T01:14:37.818Z,21.12
2019-05-30T01:17:10.140Z,21.11
2019-05-30T01:19:42.518Z,21.09
2019-05-30T01:22:14.917Z,21.03
2019-05-30T01:24:47.155Z,21.04
2019-05-30T01:27:22.152Z,21.03
2019-05-30T01:29:54.466Z,21.02
2019-05-30T01:32:30.107Z,20.94
2019-05-30T01:35:03.840Z,20.93
2019-05-30T01:37:36.362Z,20.93
2019-05-30T01:40:09.157Z,20.95
2019-05-30T01:42:41.475Z,20.90
2019-05-30T01:45:14.315Z,20.90
2019-05-30T01:47:46.754Z,20.89
2019-05-30T01:50:19.248Z,20.93
2019-05-30T01:52:51.994Z,20.89
2019-05-30T01:55:24.350Z,20.84
2019-05-30T01:58:01.576Z,20.74
2019-05-30T02:00:55.150Z,20.68
2019-05-30T02:03:29.260Z,20.65
2019-05-30T02:06:01.556Z,20.57
2019-05-30T02:08:33.950Z,20.58
2019-05-30T02:11:07.492Z,20.58
2019-05-30T02:13:39.971Z,20.60
2019-05-30T02:16:13.638Z,20.57
2019-05-30T02:18:45.890Z,20.54
2019-05-30T02:21:18.323Z,20.53
2019-05-30T02:23:50.606Z,20.55
2019-05-30T02:26:22.990Z,20.48
2019-05-30T02:28:55.324Z,20.49
2019-05-30T02:31:38.891Z,20.52
2019-05-30T02:34:05.379Z,20.55
2019-05-30T02:36:37.861Z,20.54
2019-05-30T02:39:12.023Z,20.53
2019-05-30T02:41:44.824Z,20.55
2019-05-30T02:44:17.345Z,20.53
2019-05-30T02:46:49.563Z,20.61
2019-05-30T02:49:21.947Z,20.67
2019-05-30T02:51:54.312Z,20.66
2019-05-30T02:54:26.716Z,20.64
2019-05-30T02:56:59.310Z,20.68
2019-05-30T02:59:31.551Z,20.73
2019-05-30T03:02:07.246Z,20.75
2019-05-30T03:04:37.991Z,20.75
2019-05-30T03:07:11.370Z,20.84
2019-05-30T03:09:47.616Z,20.80
2019-05-30T03:12:20.938Z,20.78
2019-05-30T03:14:53.654Z,20.81
2019-05-30T03:17:26.113Z,20.85
2019-05-30T03:19:58.733Z,20.86
2019-05-30T03:22:31.135Z,20.86
2019-05-30T03:25:10.186Z,20.90
2019-05-30T03:27:41.550Z,20.91
2019-05-30T03:30:26.056Z,20.90
2019-05-30T03:33:18.955Z,20.78
2019-05-30T03:35:29.861Z,20.71
2019-05-30T03:37:59.286Z,20.82
2019-05-30T03:40:32.137Z,20.88
2019-05-30T03:43:06.694Z,20.89
2019-05-30T03:45:41.000Z,20.93
2019-05-30T03:48:16.588Z,20.95
2019-05-30T03:50:51.950Z,21.00
2019-05-30T03:53:24.571Z,21.02
2019-05-30T03:55:59.660Z,21.04
2019-05-30T03:58:40.875Z,21.10
2019-05-30T04:01:24.640Z,21.16
2019-05-30T04:04:09.183Z,21.21
2019-05-30T04:06:45.394Z,21.18
2019-05-30T04:09:24.313Z,21.29
2019-05-30T04:12:19.997Z,21.31
2019-05-30T04:14:55.281Z,21.35
2019-05-30T04:17:27.630Z,21.36
2019-05-30T04:20:00.300Z,21.44
2019-05-30T04:22:32.804Z,21.45
2019-05-30T04:25:08.571Z,21.57
2019-05-30T04:27:41.098Z,21.61
2019-05-30T04:30:14.386Z,21.65
2019-05-30T04:32:47.416Z,21.72
2019-05-30T04:35:21.371Z,21.77
2019-05-30T04:37:54.166Z,21.87
2019-05-30T04:40:26.534Z,21.95
2019-05-30T04:42:58.961Z,22.05
2019-05-30T04:45:31.467Z,22.09
2019-05-30T04:48:03.938Z,22.15
2019-05-30T04:50:36.207Z,22.22
2019-05-30T04:53:09.991Z,22.30
2019-05-30T04:55:42.507Z,22.36
2019-05-30T04:58:17.042Z,22.42
2019-05-30T05:00:49.216Z,22.49
2019-05-30T05:03:43.569Z,22.63
2019-05-30T05:05:55.760Z,22.66
2019-05-30T05:08:28.155Z,22.71
2019-05-30T05:11:00.241Z,22.82
2019-05-30T05:13:32.658Z,22.84
2019-05-30T05:16:22.041Z,22.90
2019-05-30T05:18:39.824Z,23.01
2019-05-30T05:21:12.833Z,23.11
2019-05-30T05:23:47.335Z,23.14
2019-05-30T05:26:19.677Z,23.16
2019-05-30T05:28:51.924Z,23.31
2019-05-30T05:31:24.543Z,23.41
2019-05-30T05:33:57.493Z,23.46
2019-05-30T05:36:30.017Z,23.55
2019-05-30T05:39:02.806Z,23.66
2019-05-30T05:41:35.388Z,23.70
2019-05-30T05:44:08.066Z,23.78
2019-05-30T05:46:40.562Z,23.83
2019-05-30T05:49:18.960Z,23.95
2019-05-30T05:51:55.224Z,23.97
2019-05-30T05:54:27.355Z,24.08
2019-05-30T05:56:59.789Z,24.06
2019-05-30T05:59:32.077Z,24.03
2019-05-30T06:02:04.399Z,24.15
2019-05-30T06:04:36.752Z,24.18
2019-05-30T06:07:09.145Z,24.28
2019-05-30T06:09:41.547Z,24.31
2019-05-30T06:12:13.837Z,24.36
2019-05-30T06:14:46.233Z,24.44
2019-05-30T06:17:19.012Z,24.53
2019-05-30T06:19:51.847Z,24.60
2019-05-30T06:22:25.621Z,24.68
2019-05-30T06:24:57.856Z,24.74
2019-05-30T06:27:30.158Z,24.76
2019-05-30T06:30:02.380Z,24.79
2019-05-30T06:32:34.866Z,24.85
2019-05-30T06:35:09.198Z,25.03
2019-05-30T06:37:42.827Z,25.13
2019-05-30T06:40:15.715Z,25.20
2019-05-30T06:42:48.709Z,25.28
2019-05-30T06:45:23.670Z,25.33
2019-05-30T06:47:55.270Z,25.37
2019-05-30T06:50:29.056Z,25.49
2019-05-30T06:53:01.636Z,25.61
2019-05-30T06:55:34.137Z,25.66
2019-05-30T06:58:06.740Z,25.71
2019-05-30T07:00:39.194Z,25.84
2019-05-30T07:03:13.285Z,26.09
2019-05-30T07:05:46.368Z,26.13
2019-05-30T07:08:19.171Z,26.01
2019-05-30T07:10:52.419Z,26.13
2019-05-30T07:13:25.212Z,26.35
2019-05-30T07:15:57.651Z,26.51
2019-05-30T07:18:33.685Z,26.40
2019-05-30T07:21:04.087Z,26.43
2019-05-30T07:23:39.249Z,26.57
2019-05-30T07:26:10.766Z,26.77
2019-05-30T07:28:44.978Z,26.69
2019-05-30T07:31:17.361Z,26.86
2019-05-30T07:33:51.672Z,27.10
2019-05-30T07:36:24.701Z,27.30
2019-05-30T07:38:57.053Z,27.62
2019-05-30T07:41:29.261Z,27.81
2019-05-30T07:44:01.651Z,27.91
2019-05-30T07:46:35.131Z,28.00
2019-05-30T07:49:07.787Z,28.13
2019-05-30T07:51:40.740Z,28.24
2019-05-30T07:54:13.110Z,28.02
2019-05-30T07:56:45.554Z,28.21
2019-05-30T07:59:17.965Z,28.16
2019-05-30T08:01:50.342Z,28.28
2019-05-30T08:04:36.373Z,28.41
2019-05-30T08:07:08.939Z,28.36
2019-05-30T08:09:42.429Z,28.51
2019-05-30T08:12:14.819Z,28.59
2019-05-30T08:14:47.158Z,28.50
2019-05-30T08:17:19.508Z,28.60
2019-05-30T08:19:51.983Z,28.52
2019-05-30T08:22:24.361Z,28.44
2019-05-30T08:24:56.708Z,28.63
2019-05-30T08:27:30.149Z,28.42
2019-05-30T08:30:02.683Z,28.46
2019-05-30T08:32:35.264Z,28.55
2019-05-30T08:35:08.263Z,28.30
2019-05-30T08:37:40.611Z,28.56
2019-05-30T08:40:14.003Z,28.61
2019-05-30T08:42:46.973Z,28.49
2019-05-30T08:45:19.722Z,28.65
2019-05-30T08:47:52.140Z,28.85
2019-05-30T08:50:24.740Z,28.89
2019-05-30T08:52:57.484Z,28.69
2019-05-30T08:55:30.233Z,28.90
2019-05-30T08:58:02.854Z,29.06
2019-05-30T09:00:35.385Z,29.18
2019-05-30T09:03:09.335Z,29.49
2019-05-30T09:05:58.161Z,29.68
2019-05-30T09:08:22.287Z,29.85
2019-05-30T09:10:54.816Z,29.87
2019-05-30T09:13:27.403Z,29.93
2019-05-30T09:16:01.877Z,30.01
2019-05-30T09:18:36.836Z,29.75
2019-05-30T09:21:09.780Z,29.76
2019-05-30T09:23:42.369Z,29.69
2019-05-30T09:26:16.198Z,29.89
2019-05-30T09:28:48.755Z,29.39
2019-05-30T09:31:21.208Z,29.62
2019-05-30T09:33:53.597Z,29.51
2019-05-30T09:36:26.374Z,29.34
2019-05-30T09:38:58.686Z,29.44
2019-05-30T09:41:31.097Z,29.36
2019-05-30T09:44:03.623Z,29.28
2019-05-30T09:46:36.228Z,29.38
2019-05-30T09:49:08.562Z,29.72
2019-05-30T09:51:42.469Z,29.86
2019-05-30T09:54:15.895Z,30.10
2019-05-30T09:56:48.605Z,30.15
2019-05-30T09:59:20.890Z,30.12
2019-05-30T10:01:54.118Z,30.33
2019-05-30T10:04:26.828Z,30.58
2019-05-30T10:06:59.521Z,30.80
2019-05-30T10:09:54.787Z,31.08
2019-05-30T10:12:34.073Z,30.87
2019-05-30T10:19:16.239Z,31.08
2019-05-30T10:21:51.686Z,30.90
2019-05-30T10:25:12.309Z,30.91
2019-05-30T10:27:31.888Z,30.71
2019-05-30T10:30:07.439Z,30.86
2019-05-30T10:32:40.017Z,30.69
2019-05-30T10:35:13.188Z,30.39
2019-05-30T10:37:47.122Z,30.53
2019-05-30T10:40:20.471Z,30.85
2019-05-30T10:42:53.659Z,31.18
2019-05-30T10:48:09.092Z,30.75
2019-05-30T10:50:41.578Z,30.75
2019-05-30T10:53:14.080Z,30.70
2019-05-30T10:55:48.097Z,30.68
2019-05-30T10:58:20.703Z,30.81
2019-05-30T11:00:58.094Z,30.61
2019-05-30T11:03:30.738Z,30.56
2019-05-30T11:06:23.140Z,30.86
2019-05-30T11:08:58.483Z,31.12
2019-05-30T11:11:30.726Z,31.13
2019-05-30T11:14:05.095Z,31.24
2019-05-30T11:16:39.983Z,31.30
2019-05-30T11:19:14.169Z,31.22
2019-05-30T11:21:47.851Z,31.12
2019-05-30T11:24:21.048Z,31.19
2019-05-30T11:26:55.510Z,31.18
2019-05-30T11:29:28.566Z,30.88
2019-05-30T11:32:04.961Z,30.85
2019-05-30T11:34:45.767Z,30.87
2019-05-30T11:37:20.186Z,30.76
2019-05-30T11:39:53.246Z,31.13
2019-05-30T11:42:25.748Z,31.17
2019-05-30T11:44:58.261Z,31.34
2019-05-30T11:47:31.085Z,31.11
2019-05-30T11:50:04.866Z,31.33
2019-05-30T11:52:37.375Z,31.51
2019-05-30T11:55:10.060Z,31.41
2019-05-30T11:57:42.504Z,31.00
2019-05-30T12:00:15.353Z,30.65
2019-05-30T12:02:50.195Z,30.59
2019-05-30T12:05:23.206Z,30.57
2019-05-30T12:07:56.855Z,30.72
2019-05-30T12:10:29.762Z,30.65
2019-05-30T12:13:02.176Z,30.49
2019-05-30T12:15:36.393Z,30.45
2019-05-30T12:18:10.232Z,30.48
2019-05-30T12:20:43.635Z,30.53
2019-05-30T12:23:16.105Z,30.51
2019-05-30T12:25:48.890Z,30.48
2019-05-30T12:28:22.786Z,30.36
2019-05-30T12:31:04.276Z,30.30
2019-05-30T12:36:33.230Z,30.42
2019-05-30T12:39:08.971Z,30.49
2019-05-30T12:41:44.354Z,30.46
2019-05-30T12:44:17.912Z,30.27
2019-05-30T12:46:50.506Z,30.11
2019-05-30T12:49:23.150Z,29.82
2019-05-30T12:51:56.172Z,29.90
2019-05-30T12:54:28.580Z,30.01
2019-05-30T12:57:01.039Z,29.51
2019-05-30T12:59:33.287Z,29.48
2019-05-30T13:02:07.182Z,29.54
2019-05-30T13:04:40.029Z,29.76
2019-05-30T13:07:13.117Z,30.17
2019-05-30T13:09:45.867Z,30.53
2019-05-30T13:12:19.897Z,30.86
2019-05-30T13:14:55.498Z,30.77
2019-05-30T13:17:28.019Z,30.52
2019-05-30T13:20:01.466Z,30.29
2019-05-30T13:22:35.169Z,30.38
2019-05-30T13:25:13.421Z,29.88
2019-05-30T13:27:47.020Z,29.77
2019-05-30T13:30:20.013Z,30.00
2019-05-30T13:32:52.774Z,30.07
2019-05-30T13:35:25.375Z,29.87
2019-05-30T13:37:58.959Z,29.86
2019-05-30T13:40:31.590Z,30.03
2019-05-30T13:43:04.080Z,30.28
2019-05-30T13:45:38.958Z,30.29
2019-05-30T13:48:11.628Z,30.63
2019-05-30T13:50:44.766Z,30.86
2019-05-30T13:53:17.242Z,31.00
2019-05-30T13:55:49.990Z,30.82
2019-05-30T13:58:22.361Z,30.56
2019-05-30T14:00:56.140Z,30.43
2019-05-30T14:03:28.689Z,30.30
2019-05-30T14:06:02.946Z,30.19
2019-05-30T14:08:41.515Z,29.76
2019-05-30T14:11:12.533Z,29.70
2019-05-30T14:13:45.341Z,29.51
2019-05-30T14:16:17.584Z,29.33
2019-05-30T14:18:51.390Z,29.24
2019-05-30T14:21:23.784Z,29.13
2019-05-30T14:23:56.213Z,29.13
2019-05-30T14:26:28.798Z,29.04
2019-05-30T14:29:02.217Z,28.96
2019-05-30T14:31:35.225Z,29.02
2019-05-30T14:34:08.097Z,29.02
2019-05-30T14:36:41.347Z,29.04
2019-05-30T14:39:14.191Z,29.09
2019-05-30T14:41:47.162Z,28.92
2019-05-30T14:44:19.713Z,28.78
2019-05-30T14:46:55.815Z,28.81
2019-05-30T14:49:45.731Z,28.70
2019-05-30T14:52:18.801Z,28.46
2019-05-30T14:54:58.752Z,28.37
2019-05-30T14:57:43.434Z,28.37
2019-05-30T15:00:54.090Z,28.35
2019-05-30T15:03:27.554Z,28.23
2019-05-30T15:06:38.288Z,28.29
2019-05-30T15:09:25.604Z,28.39
2019-05-30T15:11:53.547Z,28.92
2019-05-30T15:14:41.259Z,29.25
2019-05-30T15:17:19.668Z,29.38
2019-05-30T15:19:54.857Z,29.40
2019-05-30T15:22:28.020Z,29.30
2019-05-30T15:25:00.628Z,29.10
2019-05-30T15:27:33.825Z,28.59
2019-05-30T15:30:10.550Z,28.60
2019-05-30T15:32:43.172Z,28.66
2019-05-30T15:35:18.969Z,28.57
2019-05-30T15:37:50.308Z,28.42
2019-05-30T15:40:22.605Z,28.49
2019-05-30T15:42:55.591Z,28.69
2019-05-30T15:45:28.511Z,28.82
2019-05-30T15:48:05.298Z,28.90
2019-05-30T15:50:38.637Z,28.84
2019-05-30T15:53:15.118Z,28.78
2019-05-30T15:55:48.098Z,28.58
2019-05-30T15:58:20.656Z,28.51
2019-05-30T16:00:52.964Z,28.58
2019-05-30T16:03:26.976Z,28.49
2019-05-30T16:06:00.703Z,28.64
2019-05-30T16:08:33.452Z,28.66
2019-05-30T16:11:06.525Z,28.67
2019-05-30T16:13:39.305Z,28.73
2019-05-30T16:16:13.470Z,28.80
2019-05-30T16:18:47.407Z,28.74
2019-05-30T16:21:20.301Z,28.71
2019-05-30T16:23:54.421Z,28.62
2019-05-30T16:26:27.206Z,28.40
2019-05-30T16:29:00.127Z,28.22
2019-05-30T16:31:33.051Z,28.10
2019-05-30T16:34:07.705Z,28.07
2019-05-30T16:36:43.565Z,27.99
2019-05-30T16:39:16.173Z,27.88
2019-05-30T16:41:48.817Z,27.88
2019-05-30T16:44:22.466Z,27.88
2019-05-30T16:46:54.930Z,27.84
2019-05-30T16:49:28.013Z,27.66
2019-05-30T16:52:01.154Z,27.66
2019-05-30T16:54:33.776Z,27.58
2019-05-30T16:57:06.210Z,27.58
2019-05-30T16:59:38.975Z,27.48
2019-05-30T17:02:11.958Z,27.48
2019-05-30T17:04:45.067Z,27.45
2019-05-30T17:07:17.528Z,27.42
2019-05-30T17:09:49.913Z,27.26
2019-05-30T17:12:24.086Z,27.14
2019-05-30T17:15:15.949Z,27.03
2019-05-30T17:17:48.985Z,27.03
2019-05-30T17:20:22.578Z,26.77
2019-05-30T17:22:55.269Z,26.77
2019-05-30T17:25:29.260Z,26.67
2019-05-30T17:28:05.140Z,26.60
2019-05-30T17:30:46.999Z,26.51
2019-05-30T17:33:21.780Z,26.48
2019-05-30T17:35:54.672Z,26.49
2019-05-30T17:38:28.741Z,26.43
2019-05-30T17:41:01.356Z,26.34
2019-05-30T17:43:34.305Z,26.29
2019-05-30T17:46:07.872Z,26.21
2019-05-30T17:48:43.642Z,26.14
2019-05-30T17:51:19.695Z,26.09
2019-05-30T17:53:55.643Z,26.06
2019-05-30T17:56:28.301Z,25.96
2019-05-30T17:59:01.884Z,25.94
2019-05-30T18:01:35.715Z,25.91
2019-05-30T18:04:09.997Z,25.84
2019-05-30T18:06:46.478Z,25.83
2019-05-30T18:09:19.044Z,25.82
2019-05-30T18:11:52.402Z,25.77
2019-05-30T18:14:27.416Z,25.70
2019-05-30T18:17:00.778Z,25.60
2019-05-30T18:19:33.195Z,25.58
2019-05-30T18:22:05.728Z,25.50
2019-05-30T18:24:38.423Z,25.49
2019-05-30T18:27:11.001Z,25.49
2019-05-30T18:29:45.217Z,25.41
2019-05-30T18:32:18.840Z,25.30
2019-05-30T18:34:59.647Z,25.29
2019-05-30T18:37:32.538Z,25.23
2019-05-30T18:40:07.431Z,25.19
2019-05-30T18:42:40.383Z,25.10
2019-05-30T18:45:12.787Z,25.08
2019-05-30T18:47:48.481Z,25.03
2019-05-30T18:50:20.902Z,24.92
2019-05-30T18:52:53.821Z,24.94
2019-05-30T18:55:26.567Z,24.86
2019-05-30T18:57:59.297Z,24.84
2019-05-30T19:00:33.215Z,24.86
2019-05-30T19:03:06.099Z,24.85
2019-05-30T19:05:38.741Z,24.83
2019-05-30T19:08:13.195Z,24.76
2019-05-30T19:10:46.074Z,24.75
2019-05-30T19:13:21.741Z,24.73
2019-05-30T19:18:54.571Z,24.70
2019-05-30T19:21:27.925Z,24.69
2019-05-30T19:24:01.852Z,24.65
2019-05-30T19:26:37.376Z,24.62
2019-05-30T19:29:10.824Z,24.60
2019-05-30T19:31:46.966Z,24.55
2019-05-30T19:34:22.265Z,24.52
2019-05-30T19:36:55.376Z,24.46
2019-05-30T19:39:33.600Z,24.47
2019-05-30T19:42:06.812Z,24.43
2019-05-30T19:44:42.290Z,24.29
2019-05-30T19:47:15.425Z,24.19
2019-05-30T19:49:49.412Z,24.14
2019-05-30T19:52:21.834Z,24.18
2019-05-30T19:54:55.333Z,24.30
2019-05-30T19:57:27.875Z,24.28
2019-05-30T20:00:01.230Z,24.17
2019-05-30T20:02:34.557Z,24.08
2019-05-30T20:05:08.292Z,24.09
2019-05-30T20:07:41.755Z,24.17
2019-05-30T20:10:20.149Z,24.15
2019-05-30T20:12:52.865Z,24.19
2019-05-30T20:15:27.594Z,24.18
2019-05-30T20:18:01.297Z,24.18
2019-05-30T20:20:52.893Z,24.16
2019-05-30T20:23:17.199Z,24.13
2019-05-30T20:25:51.037Z,24.11
2019-05-30T20:28:23.461Z,24.16
2019-05-30T20:31:07.826Z,24.14
2019-05-30T20:33:42.646Z,24.08
2019-05-30T20:36:18.673Z,24.08
2019-05-30T20:39:07.039Z,24.03
2019-05-30T20:41:40.958Z,24.02
2019-05-30T20:44:14.054Z,24.00
2019-05-30T20:46:47.346Z,23.97
2019-05-30T20:49:19.715Z,23.97
2019-05-30T20:51:52.092Z,23.93
2019-05-30T20:54:24.569Z,23.91
2019-05-30T20:56:57.063Z,23.83
2019-05-30T20:59:34.291Z,23.71
2019-05-30T21:02:08.608Z,23.59
2019-05-30T21:04:41.053Z,23.50
2019-05-30T21:07:15.658Z,23.44
2019-05-30T21:09:50.064Z,23.36
2019-05-30T21:12:36.863Z,23.34
2019-05-30T21:15:03.464Z,23.39
2019-05-30T21:17:37.786Z,23.37
2019-05-30T21:20:12.057Z,23.36
2019-05-30T21:22:44.817Z,23.34
2019-05-30T21:25:17.427Z,23.27
2019-05-30T21:27:50.790Z,23.34
2019-05-30T21:30:25.415Z,23.40
2019-05-30T21:32:57.560Z,23.37
2019-05-30T21:35:30.014Z,23.31
2019-05-30T21:38:02.415Z,23.36
2019-05-30T21:40:34.893Z,23.32
2019-05-30T21:43:07.494Z,23.28
2019-05-30T21:45:42.537Z,23.20
2019-05-30T21:48:17.196Z,23.20
2019-05-30T21:50:50.524Z,23.19
2019-05-30T21:53:22.702Z,23.20
2019-05-30T21:55:55.028Z,23.18
2019-05-30T21:58:27.641Z,23.23
2019-05-30T22:01:24.094Z,23.26
2019-05-30T22:03:57.246Z,23.15
2019-05-30T22:06:30.094Z,23.20
2019-05-30T22:09:03.773Z,23.20
2019-05-30T22:11:36.494Z,23.15
2019-05-30T22:14:10.067Z,23.15
2019-05-30T22:16:43.851Z,23.12
2019-05-30T22:19:16.682Z,23.18
2019-05-30T22:21:50.279Z,23.17
2019-05-30T22:24:22.874Z,23.17
2019-05-30T22:26:55.400Z,23.17
2019-05-30T22:29:27.669Z,23.16
2019-05-30T22:32:02.795Z,23.11
2019-05-30T22:34:35.138Z,23.15
2019-05-30T22:37:07.701Z,23.09
2019-05-30T22:39:40.328Z,23.01
2019-05-30T22:42:12.732Z,22.90
2019-05-30T22:44:46.450Z,22.92
2019-05-30T22:47:19.161Z,22.96
2019-05-30T22:49:52.836Z,22.96
2019-05-30T22:52:25.979Z,22.92
2019-05-30T22:54:58.388Z,22.89
2019-05-30T22:57:30.768Z,22.78
2019-05-30T23:00:10.755Z,22.67
2019-05-30T23:02:45.808Z,22.68
2019-05-30T23:05:18.942Z,22.64
2019-05-30T23:07:53.607Z,22.64
2019-05-30T23:10:27.564Z,22.66
2019-05-30T23:12:59.918Z,22.68
2019-05-30T23:15:32.417Z,22.57
2019-05-30T23:18:06.423Z,22.53
2019-05-30T23:20:38.827Z,22.46
2019-05-30T23:23:11.341Z,22.42
2019-05-30T23:25:43.537Z,22.39
2019-05-30T23:28:23.594Z,22.25
2019-05-30T23:30:56.298Z,22.18
2019-05-30T23:33:28.609Z,22.18
2019-05-30T23:36:01.424Z,22.22
2019-05-30T23:38:33.711Z,22.28
2019-05-30T23:41:06.875Z,22.25
2019-05-30T23:43:53.160Z,22.20
2019-05-30T23:46:14.001Z,22.12
2019-05-30T23:48:46.403Z,22.08
2019-05-30T23:51:18.915Z,22.03
2019-05-30T23:53:52.078Z,22.01
2019-05-30T23:56:24.512Z,22.05
2019-05-30T23:58:56.888Z,22.01
